Time;durP1;ratioP1;P1;durP2;ratioP2;P2;SDS_P1;SDS_P2;PMS_P1;PMS_P2;Temp;Humidity;BMP_temperature;BMP_pressure;BME280_temperature;BME280_humidity;BME280_pressure;Samples;Min_cycle;Max_cycle;Signal;HPM_P1;HPM_P2
2023/10/24 00:01:40;;;;;;;;;18.25;13.00;;;;;11.29;100.00;100217.19;5031381;28;10239;-68
2023/10/24 00:04:06;;;;;;;;;15.00;13.00;;;;;11.30;100.00;100216.16;5031612;28;10350;-68
2023/10/24 00:06:33;;;;;;;;;15.00;13.75;;;;;11.31;100.00;100208.91;5031438;28;10063;-67
2023/10/24 00:09:00;;;;;;;;;13.25;13.00;;;;;11.26;100.00;100195.22;5033650;28;10369;-68
2023/10/24 00:11:26;;;;;;;;;19.75;12.75;;;;;11.35;100.00;100202.03;5032200;28;10067;-68
2023/10/24 00:13:53;;;;;;;;;12.75;11.75;;;;;11.38;100.00;100205.13;5034101;28;10144;-70
2023/10/24 00:16:19;;;;;;;;;11.75;11.75;;;;;11.41;100.00;100201.16;5033016;28;10005;-67
2023/10/24 00:18:47;;;;;;;;;18.00;13.50;;;;;11.39;100.00;100190.59;5032573;28;10170;-67
2023/10/24 00:21:13;;;;;;;;;9.25;8.50;;;;;11.43;100.00;100187.50;5032454;28;10187;-69
2023/10/24 00:23:40;;;;;;;;;15.00;14.00;;;;;11.43;100.00;100182.09;5031791;28;10235;-68
2023/10/24 00:26:06;;;;;;;;;11.75;10.25;;;;;11.41;100.00;100173.38;5031085;28;10084;-68
2023/10/24 00:28:34;;;;;;;;;11.75;11.75;;;;;11.43;100.00;100176.72;5031249;28;10083;-69
2023/10/24 00:31:01;;;;;;;;;10.75;9.75;;;;;11.43;100.00;100168.63;5029662;28;10022;-68
2023/10/24 00:33:27;;;;;;;;;10.50;8.00;;;;;11.43;100.00;100168.63;5029787;28;10025;-69
2023/10/24 00:35:54;;;;;;;;;11.25;9.00;;;;;11.45;100.00;100169.22;5029558;28;10085;-68
2023/10/24 00:38:20;;;;;;;;;10.50;10.25;;;;;11.44;100.00;100170.28;5030336;28;10074;-68
2023/10/24 00:40:47;;;;;;;;;8.25;8.25;;;;;11.42;100.00;100169.66;5030664;28;10073;-68
2023/10/24 00:43:14;;;;;;;;;8.00;8.00;;;;;11.39;100.00;100165.53;5030922;28;10065;-68
2023/10/24 00:45:41;;;;;;;;;10.50;8.75;;;;;11.43;100.00;100160.53;5046014;28;10053;-68
2023/10/24 00:48:08;;;;;;;;;6.75;6.75;;;;;11.46;100.00;100160.09;5045760;28;10144;-68
2023/10/24 00:50:35;;;;;;;;;6.50;6.25;;;;;11.47;100.00;100156.38;5045871;28;9857;-68
2023/10/24 00:53:02;;;;;;;;;7.50;7.50;;;;;11.48;100.00;100149.94;5030518;28;9905;-67
2023/10/24 00:55:43;;;;;;;;;3.75;3.75;;;;;11.51;100.00;100154.88;5018556;28;9808;-68
2023/10/24 00:58:10;;;;;;;;;6.50;4.50;;;;;11.51;100.00;100146.81;5030281;28;10593;-68
2023/10/24 01:00:41;;;;;;;;;7.50;7.50;;;;;11.55;100.00;100151.53;5029579;28;9844;-68
2023/10/24 01:03:08;;;;;;;;;4.00;4.00;;;;;11.55;100.00;100139.94;5029067;28;9927;-68
2023/10/24 01:05:35;;;;;;;;;6.00;6.00;;;;;11.53;100.00;100142.00;5028954;28;9734;-67
2023/10/24 01:08:02;;;;;;;;;6.00;6.00;;;;;11.52;100.00;100138.50;5045226;28;9987;-67
2023/10/24 01:10:28;;;;;;;;;5.50;5.50;;;;;11.51;100.00;100134.16;5028696;28;9867;-68
2023/10/24 01:12:55;;;;;;;;;8.50;7.75;;;;;11.51;100.00;100138.72;5030025;28;9840;-68
2023/10/24 01:15:21;;;;;;;;;6.75;6.75;;;;;11.52;100.00;100132.28;5030053;28;9992;-68
2023/10/24 01:17:49;;;;;;;;;6.00;6.00;;;;;11.57;100.00;100135.97;5029595;28;9952;-68
2023/10/24 01:20:16;;;;;;;;;7.50;7.00;;;;;11.61;100.00;100126.41;5028575;28;9908;-68
2023/10/24 01:22:46;;;;;;;;;4.75;4.00;;;;;11.64;100.00;100125.16;5045141;28;9932;-68
2023/10/24 01:25:14;;;;;;;;;7.00;6.00;;;;;11.68;100.00;100125.53;5012165;28;9749;-68
2023/10/24 01:27:43;;;;;;;;;8.00;8.00;;;;;11.65;100.00;100124.09;5029621;28;9818;-68
2023/10/24 01:30:11;;;;;;;;;8.25;8.25;;;;;11.62;100.00;100113.75;5028848;28;10044;-68
2023/10/24 01:32:38;;;;;;;;;6.75;6.75;;;;;11.64;100.00;100117.06;5029806;28;10012;-68
2023/10/24 01:35:06;;;;;;;;;6.50;6.50;;;;;11.67;100.00;100113.94;5030070;28;9843;-68
2023/10/24 01:37:32;;;;;;;;;10.75;10.00;;;;;11.67;100.00;100105.84;5011714;28;9862;-68
2023/10/24 01:39:59;;;;;;;;;6.00;6.00;;;;;11.70;100.00;100104.56;5028398;28;10075;-68
2023/10/24 01:42:25;;;;;;;;;7.50;7.25;;;;;11.71;100.00;100101.66;5029645;28;9887;-68
2023/10/24 01:44:52;;;;;;;;;7.50;6.50;;;;;11.73;100.00;100104.13;5029476;28;10019;-68
2023/10/24 01:47:19;;;;;;;;;5.00;5.00;;;;;11.75;100.00;100100.19;5027893;28;9908;-68
2023/10/24 01:49:45;;;;;;;;;8.25;7.25;;;;;11.76;100.00;100103.69;5028208;28;10088;-68
2023/10/24 01:52:12;;;;;;;;;7.25;7.25;;;;;11.78;100.00;100102.41;5028133;28;10275;-68
2023/10/24 01:54:38;;;;;;;;;10.00;10.00;;;;;11.77;100.00;100105.34;5028111;28;9996;-68
2023/10/24 01:57:05;;;;;;;;;9.50;9.50;;;;;11.78;100.00;100102.41;5029331;28;10021;-68
2023/10/24 01:59:33;;;;;;;;;16.75;14.50;;;;;11.81;100.00;100096.59;5028054;28;9997;-68
2023/10/24 02:01:59;;;;;;;;;13.50;10.25;;;;;11.78;100.00;100091.63;5028297;28;10008;-68
2023/10/24 02:04:26;;;;;;;;;15.25;14.00;;;;;11.80;100.00;100102.22;5044558;28;10076;-68
2023/10/24 02:06:53;;;;;;;;;13.75;13.75;;;;;11.80;100.00;100094.94;5027637;28;10021;-68
2023/10/24 02:09:19;;;;;;;;;17.50;15.75;;;;;11.81;100.00;100101.16;5029376;28;10782;-68
2023/10/24 02:11:46;;;;;;;;;14.50;14.25;;;;;11.82;100.00;100092.84;5031092;28;10244;-68
2023/10/24 02:14:12;;;;;;;;;14.00;14.00;;;;;11.81;100.00;100088.50;5031905;28;10194;-68
2023/10/24 02:16:39;;;;;;;;;13.50;13.00;;;;;11.84;100.00;100089.97;5031768;28;10015;-68
2023/10/24 02:19:05;;;;;;;;;19.00;18.25;;;;;11.83;100.00;100089.16;5033321;28;9994;-68
2023/10/24 02:21:32;;;;;;;;;18.00;15.50;;;;;11.79;100.00;100090.59;5032097;28;10090;-68
2023/10/24 02:23:58;;;;;;;;;19.00;17.50;;;;;11.83;100.00;100096.41;5033026;28;10294;-68
2023/10/24 02:26:25;;;;;;;;;21.50;16.50;;;;;11.83;100.00;100086.44;5032782;28;10149;-68
2023/10/24 02:28:51;;;;;;;;;20.00;18.00;;;;;11.82;100.00;100071.25;5033046;28;10124;-68
2023/10/24 02:31:18;;;;;;;;;24.75;21.50;;;;;11.82;100.00;100070.44;5031693;28;10325;-68
2023/10/24 02:33:44;;;;;;;;;20.75;17.75;;;;;11.83;100.00;100072.97;5031857;28;10108;-68
2023/10/24 02:36:14;;;;;;;;;18.00;16.00;;;;;11.86;100.00;100069.81;5032574;28;10074;-69
2023/10/24 02:38:41;;;;;;;;;16.00;14.25;;;;;11.89;100.00;100068.53;5032849;28;10001;-68
2023/10/24 02:41:08;;;;;;;;;22.00;19.00;;;;;11.87;100.00;100068.78;5031363;28;9939;-68
2023/10/24 02:43:35;;;;;;;;;19.25;18.50;;;;;11.85;100.00;100070.84;5031525;28;10777;-68
2023/10/24 02:46:05;;;;;;;;;17.00;16.50;;;;;11.86;100.00;100069.81;5032693;28;10161;-68
2023/10/24 02:48:32;;;;;;;;;23.00;21.75;;;;;11.83;100.00;100061.34;5031327;28;10104;-68
2023/10/24 02:50:59;;;;;;;;;16.50;16.50;;;;;11.84;100.00;100065.69;5047912;28;10424;-68
2023/10/24 02:53:26;;;;;;;;;29.25;25.25;;;;;11.77;100.00;100059.50;5032745;28;10233;-68
2023/10/24 02:55:53;;;;;;;;;24.50;24.50;;;;;11.76;100.00;100061.38;5032428;28;10386;-68
2023/10/24 02:58:19;;;;;;;;;22.00;19.25;;;;;11.82;100.00;100065.88;5032392;28;10254;-68
2023/10/24 03:00:46;;;;;;;;;23.00;20.75;;;;;11.82;100.00;100063.16;5032608;28;10169;-68
2023/10/24 03:03:13;;;;;;;;;25.00;19.75;;;;;11.77;100.00;100062.19;5032494;28;10447;-68
2023/10/24 03:05:40;;;;;;;;;24.25;22.50;;;;;11.79;100.00;100062.81;5031410;28;10332;-68
2023/10/24 03:08:06;;;;;;;;;24.50;22.75;;;;;11.78;100.00;100061.13;5049071;28;10629;-68
2023/10/24 03:10:40;;;;;;;;;24.50;22.25;;;;;11.81;100.00;100072.31;5033397;28;11196;-68
2023/10/24 03:13:07;;;;;;;;;26.50;22.50;;;;;11.79;100.00;100066.34;5050208;28;10676;-68
2023/10/24 03:15:35;;;;;;;;;19.75;19.25;;;;;11.80;100.00;100057.19;5032829;28;10516;-68
2023/10/24 03:18:02;;;;;;;;;19.25;16.50;;;;;11.83;100.00;100070.28;5034073;28;10405;-68
2023/10/24 03:20:29;;;;;;;;;25.00;23.75;;;;;11.76;100.00;100077.56;5032022;28;10155;-68
2023/10/24 03:22:55;;;;;;;;;27.50;23.75;;;;;11.77;100.00;100078.38;5046979;28;10428;-68
2023/10/24 03:25:26;;;;;;;;;23.00;20.25;;;;;11.79;100.00;100074.41;5048081;28;11360;-68
2023/10/24 03:27:53;;;;;;;;;19.50;19.50;;;;;11.80;100.00;100086.03;5032387;28;10487;-68
2023/10/24 03:30:20;;;;;;;;;22.00;21.00;;;;;11.76;100.00;100074.03;5030871;28;10166;-68
2023/10/24 03:32:47;;;;;;;;;26.75;21.75;;;;;11.74;100.00;100074.25;5030643;28;10438;-68
2023/10/24 03:35:14;;;;;;;;;17.75;17.00;;;;;11.75;100.00;100077.75;5030696;28;10765;-68
2023/10/24 03:37:41;;;;;;;;;25.25;23.75;;;;;11.72;100.00;100076.34;5046945;28;10544;-68
2023/10/24 03:40:09;;;;;;;;;18.50;17.50;;;;;11.72;100.00;100084.44;5032032;28;10400;-67
2023/10/24 03:42:36;;;;;;;;;21.50;21.50;;;;;11.68;100.00;100085.09;5030741;28;10612;-68
2023/10/24 03:45:03;;;;;;;;;27.25;23.50;;;;;11.66;100.00;100085.28;5031766;28;10420;-67
2023/10/24 03:47:30;;;;;;;;;21.25;21.25;;;;;11.61;100.00;100099.44;5029975;28;10661;-68
2023/10/24 03:49:56;;;;;;;;;23.75;23.00;;;;;11.63;100.00;100093.84;5031506;28;10702;-68
2023/10/24 03:52:23;;;;;;;;;16.25;15.00;;;;;11.69;100.00;100084.03;5031777;28;10428;-68
2023/10/24 03:54:49;;;;;;;;;21.25;20.75;;;;;11.66;100.00;100082.59;5031800;28;10401;-67
2023/10/24 03:57:16;;;;;;;;;27.25;25.75;;;;;11.67;100.00;100088.81;5029890;28;10580;-68
2023/10/24 03:59:42;;;;;;;;;22.00;20.00;;;;;11.66;100.00;100093.38;5031568;28;10747;-67
2023/10/24 04:02:09;;;;;;;;;27.25;25.75;;;;;11.63;100.00;100086.59;5031446;28;10500;-67
2023/10/24 04:04:35;;;;;;;;;25.00;23.50;;;;;11.63;100.00;100081.19;5029912;28;10571;-68
2023/10/24 04:07:04;;;;;;;;;29.50;23.50;;;;;11.63;100.00;100088.47;5031527;28;10513;-67
2023/10/24 04:09:31;;;;;;;;;24.75;22.50;;;;;11.63;100.00;100088.47;5031319;28;10475;-67
2023/10/24 04:12:05;;;;;;;;;29.50;27.75;;;;;11.61;100.00;100085.97;5031285;28;10519;-67
2023/10/24 04:14:32;;;;;;;;;28.50;27.00;;;;;11.59;100.00;100093.44;5029828;28;10701;-68
2023/10/24 04:16:58;;;;;;;;;24.00;23.75;;;;;11.59;100.00;100082.66;5029327;28;10675;-67
2023/10/24 04:19:25;;;;;;;;;28.50;25.25;;;;;11.60;100.00;100089.72;5031292;28;10503;-67
2023/10/24 04:21:52;;;;;;;;;30.50;27.50;;;;;11.59;100.00;100092.63;5030928;28;10514;-67
2023/10/24 04:24:18;;;;;;;;;32.00;27.00;;;;;11.59;100.00;100089.94;5031349;28;10749;-68
2023/10/24 04:26:45;;;;;;;;;26.50;25.75;;;;;11.55;100.00;100080.63;5030553;28;10810;-68
2023/10/24 04:29:11;;;;;;;;;29.75;25.25;;;;;11.55;100.00;100081.47;5031091;28;10668;-68
2023/10/24 04:31:38;;;;;;;;;26.00;24.00;;;;;11.53;100.00;100085.41;5029470;28;10694;-68
2023/10/24 04:34:04;;;;;;;;;26.00;26.00;;;;;11.57;100.00;100083.94;5045971;28;10440;-68
2023/10/24 04:36:31;;;;;;;;;20.75;19.00;;;;;11.62;100.00;100076.00;5030328;28;10718;-67
2023/10/24 04:38:57;;;;;;;;;23.00;19.00;;;;;11.59;100.00;100077.28;5030598;28;11094;-68
2023/10/24 04:41:25;;;;;;;;;27.25;23.25;;;;;11.57;100.00;100068.56;5030623;28;10503;-67
2023/10/24 04:43:52;;;;;;;;;27.25;24.00;;;;;11.53;100.00;100064.66;5030596;28;10509;-67
2023/10/24 04:46:18;;;;;;;;;33.25;27.75;;;;;11.56;100.00;100068.81;5030117;28;11165;-67
2023/10/24 04:48:45;;;;;;;;;30.00;25.75;;;;;11.56;100.00;100069.63;5029075;28;10542;-67
2023/10/24 04:51:11;;;;;;;;;22.50;21.25;;;;;11.57;100.00;100068.56;5030604;28;10444;-70
2023/10/24 04:53:39;;;;;;;;;27.25;25.25;;;;;11.57;100.00;100071.28;5030476;28;10471;-67
2023/10/24 04:56:05;;;;;;;;;31.50;25.50;;;;;11.57;100.00;100059.66;5030069;28;10666;-70
2023/10/24 04:58:35;;;;;;;;;23.00;21.25;;;;;11.54;100.00;100057.41;5030381;28;11151;-70
2023/10/24 05:01:02;;;;;;;;;19.00;18.25;;;;;11.57;100.00;100049.69;5030185;28;10460;-67
2023/10/24 05:03:28;;;;;;;;;24.75;20.50;;;;;11.59;100.00;100047.63;5030577;28;10457;-68
2023/10/24 05:05:55;;;;;;;;;27.25;24.50;;;;;11.59;100.00;100052.19;5030006;28;10470;-67
2023/10/24 05:08:21;;;;;;;;;21.75;19.50;;;;;11.61;100.00;100032.03;5028760;28;10419;-67
2023/10/24 05:10:49;;;;;;;;;21.50;19.00;;;;;11.61;100.00;100036.63;5030468;28;10558;-68
2023/10/24 05:13:16;;;;;;;;;24.50;23.25;;;;;11.64;100.00;100030.78;5029977;28;10583;-68
2023/10/24 05:15:44;;;;;;;;;22.25;22.00;;;;;11.62;100.00;100027.47;5030161;28;10614;-67
2023/10/24 05:18:11;;;;;;;;;19.00;14.50;;;;;11.63;100.00;100034.53;5029704;28;10401;-68
2023/10/24 05:20:38;;;;;;;;;21.75;18.50;;;;;11.61;100.00;100026.66;5030013;28;10271;-68
2023/10/24 05:23:06;;;;;;;;;18.50;16.50;;;;;11.57;100.00;100028.13;5028687;28;10332;-68
2023/10/24 05:25:32;;;;;;;;;21.75;21.00;;;;;11.56;100.00;100023.81;5029836;28;10301;-68
2023/10/24 05:27:59;;;;;;;;;20.50;19.50;;;;;11.59;100.00;100023.38;5029245;28;10670;-68
2023/10/24 05:30:25;;;;;;;;;27.00;26.00;;;;;11.56;100.00;100026.50;5029812;28;10246;-67
2023/10/24 05:32:52;;;;;;;;;23.25;21.00;;;;;11.55;100.00;100026.72;5029635;28;10357;-67
2023/10/24 05:35:19;;;;;;;;;18.25;17.75;;;;;11.55;100.00;100034.81;5029761;28;10333;-67
2023/10/24 05:37:45;;;;;;;;;27.25;21.50;;;;;11.56;100.00;100029.19;5044633;28;10394;-68
2023/10/24 05:40:12;;;;;;;;;19.75;18.00;;;;;11.60;100.00;100018.81;5029524;28;10370;-68
2023/10/24 05:42:38;;;;;;;;;25.00;21.25;;;;;11.59;100.00;100020.69;5029851;28;10295;-67
2023/10/24 05:45:05;;;;;;;;;22.75;21.25;;;;;11.53;100.00;100020.72;5027893;28;10388;-68
2023/10/24 05:47:31;;;;;;;;;27.50;26.25;;;;;11.52;100.00;100016.38;5029197;28;10512;-67
2023/10/24 05:49:58;;;;;;;;;23.75;20.50;;;;;11.57;100.00;100019.22;5029748;28;10516;-67
2023/10/24 05:52:25;;;;;;;;;22.75;21.00;;;;;11.55;100.00;100010.56;5029509;28;10352;-68
2023/10/24 05:54:52;;;;;;;;;22.75;20.75;;;;;11.55;100.00;100010.56;5028000;28;10527;-68
2023/10/24 05:57:19;;;;;;;;;21.50;19.00;;;;;11.55;100.00;100008.69;5029202;28;10548;-69
2023/10/24 05:59:45;;;;;;;;;30.50;27.00;;;;;11.48;100.00;100016.00;5029601;28;10539;-69
2023/10/24 06:02:12;;;;;;;;;28.00;24.50;;;;;11.49;100.00;100003.34;5028285;28;10726;-69
2023/10/24 06:04:38;;;;;;;;;23.50;22.25;;;;;11.46;100.00;100011.84;5028251;28;10516;-68
2023/10/24 06:07:07;;;;;;;;;22.75;18.50;;;;;11.45;100.00;100004.81;5029192;28;10566;-69
2023/10/24 06:09:33;;;;;;;;;28.50;27.25;;;;;11.45;100.00;100010.22;5029563;28;10514;-69
2023/10/24 06:12:00;;;;;;;;;24.50;20.75;;;;;11.47;100.00;100008.16;5029419;28;10653;-69
2023/10/24 06:14:26;;;;;;;;;23.75;20.75;;;;;11.50;100.00;100007.69;5029451;28;10565;-69
2023/10/24 06:16:53;;;;;;;;;30.50;29.00;;;;;11.48;100.00;100009.78;5029532;28;10624;-69
2023/10/24 06:19:19;;;;;;;;;29.75;26.75;;;;;11.39;100.00;100023.53;5029885;28;10690;-69
2023/10/24 06:21:46;;;;;;;;;30.25;29.00;;;;;11.35;100.00;100027.72;5030011;28;10540;-69
2023/10/24 06:24:13;;;;;;;;;29.75;23.25;;;;;11.41;100.00;100031.38;5027961;28;10798;-69
2023/10/24 06:26:39;;;;;;;;;20.75;17.25;;;;;11.44;100.00;100020.19;5029290;28;10736;-69
2023/10/24 06:29:05;;;;;;;;;24.25;21.75;;;;;11.45;100.00;100040.69;5029585;28;10381;-69
2023/10/24 06:31:32;;;;;;;;;26.50;24.75;;;;;11.47;100.00;100041.31;5029547;28;10353;-69
2023/10/24 06:33:59;;;;;;;;;27.75;24.75;;;;;11.43;100.00;100036.56;5029154;28;10526;-69
2023/10/24 06:36:26;;;;;;;;;28.00;20.25;;;;;11.43;100.00;100040.09;5028583;28;10773;-69
2023/10/24 06:38:54;;;;;;;;;25.00;21.50;;;;;11.45;100.00;100048.78;5028940;28;10584;-69
2023/10/24 06:41:20;;;;;;;;;22.50;22.25;;;;;11.47;100.00;100053.97;5029221;28;10522;-69
2023/10/24 06:43:47;;;;;;;;;26.00;23.25;;;;;11.46;100.00;100061.19;5029092;28;10522;-69
2023/10/24 06:46:13;;;;;;;;;23.75;21.75;;;;;11.46;100.00;100054.97;5027415;28;10552;-67
2023/10/24 06:48:40;;;;;;;;;29.50;23.50;;;;;11.48;100.00;100058.28;5027753;28;10544;-69
2023/10/24 06:51:06;;;;;;;;;29.50;24.25;;;;;11.48;100.00;100058.28;5029106;28;10574;-68
2023/10/24 06:53:33;;;;;;;;;29.50;27.25;;;;;11.47;100.00;100062.03;5027621;28;10581;-69
2023/10/24 06:56:01;;;;;;;;;31.00;26.00;;;;;11.46;100.00;100061.19;5028704;28;10655;-68
2023/10/24 06:58:27;;;;;;;;;34.75;27.00;;;;;11.45;100.00;100058.72;5029849;28;10600;-69
2023/10/24 07:00:54;;;;;;;;;27.25;25.25;;;;;11.39;100.00;100063.97;5032502;28;10789;-67
2023/10/24 07:03:21;;;;;;;;;29.25;27.00;;;;;11.42;100.00;100061.84;5032618;28;10686;-69
2023/10/24 07:05:51;;;;;;;;;34.00;26.00;;;;;11.45;100.00;100054.16;5032369;28;10726;-68
2023/10/24 07:08:18;;;;;;;;;24.50;21.50;;;;;11.45;100.00;100059.56;5031025;28;10801;-68
2023/10/24 07:10:44;;;;;;;;;30.50;27.00;;;;;11.48;100.00;100061.00;5032597;28;10875;-68
2023/10/24 07:13:11;;;;;;;;;30.00;24.50;;;;;11.49;100.00;100059.94;5032503;28;10809;-69
2023/10/24 07:15:39;;;;;;;;;32.75;28.25;;;;;11.50;100.00;100058.88;5032864;28;10663;-69
2023/10/24 07:18:06;;;;;;;;;33.50;31.50;;;;;11.47;100.00;100060.16;5031921;28;10632;-69
2023/10/24 07:20:37;;;;;;;;;30.25;28.75;;;;;11.39;100.00;100069.34;5047312;28;11498;-69
2023/10/24 07:23:04;;;;;;;;;31.00;29.00;;;;;11.33;100.00;100059.44;5032197;28;10663;-69
2023/10/24 07:25:31;;;;;;;;;27.25;25.50;;;;;11.36;100.00;100061.69;5032110;28;10684;-68
2023/10/24 07:27:58;;;;;;;;;29.50;24.50;;;;;11.36;100.00;100059.00;5030311;28;10653;-69
2023/10/24 07:30:25;;;;;;;;;27.25;26.25;;;;;11.38;100.00;100059.63;5031844;28;10573;-69
2023/10/24 07:32:54;;;;;;;;;31.75;29.25;;;;;11.31;100.00;100058.84;5030509;28;10663;-69
2023/10/24 07:35:22;;;;;;;;;28.75;24.75;;;;;11.30;100.00;100056.34;5032026;28;10764;-67
2023/10/24 07:37:48;;;;;;;;;24.25;24.25;;;;;11.34;100.00;100058.41;5030478;28;10579;-71
2023/10/24 07:40:16;;;;;;;;;26.00;22.75;;;;;11.36;100.00;100050.91;5031769;28;10583;-69
2023/10/24 07:42:42;;;;;;;;;34.25;26.75;;;;;11.32;100.00;100056.97;5031857;28;10588;-70
2023/10/24 07:45:11;;;;;;;;;33.00;31.25;;;;;11.30;100.00;100037.47;5030535;28;10786;-68
2023/10/24 07:47:38;;;;;;;;;28.50;24.00;;;;;11.34;100.00;100036.00;5030919;28;10701;-68
2023/10/24 07:50:07;;;;;;;;;25.50;22.00;;;;;11.33;100.00;100037.88;5031466;28;10638;-68
2023/10/24 07:52:33;;;;;;;;;29.25;22.75;;;;;11.37;100.00;100033.69;5031545;28;10652;-68
2023/10/24 07:55:00;;;;;;;;;25.50;23.75;;;;;11.35;100.00;100034.97;5032006;28;10597;-69
2023/10/24 07:57:26;;;;;;;;;28.75;26.50;;;;;11.36;100.00;100045.53;5029866;28;10604;-69
2023/10/24 07:59:53;;;;;;;;;18.75;18.75;;;;;11.42;100.00;100033.03;5031188;28;10651;-69
2023/10/24 08:02:19;;;;;;;;;26.00;26.00;;;;;11.46;100.00;100038.81;5029923;28;10503;-68
2023/10/24 08:04:46;;;;;;;;;22.50;21.00;;;;;11.46;100.00;100034.25;5031451;28;10335;-68
2023/10/24 08:07:12;;;;;;;;;29.50;25.50;;;;;11.45;100.00;100039.88;5030774;28;10482;-69
2023/10/24 08:09:39;;;;;;;;;24.00;23.00;;;;;11.39;100.00;100033.50;5029468;28;10420;-68
2023/10/24 08:12:06;;;;;;;;;26.75;23.25;;;;;11.40;100.00;100037.84;5046573;28;11296;-69
2023/10/24 08:14:32;;;;;;;;;26.75;24.75;;;;;11.36;100.00;100039.31;5029705;28;10673;-68
2023/10/24 08:16:59;;;;;;;;;25.25;25.00;;;;;11.40;100.00;100029.75;5029394;28;10686;-69
2023/10/24 08:19:25;;;;;;;;;26.00;24.75;;;;;11.44;100.00;100033.66;5029782;28;11206;-69
2023/10/24 08:21:52;;;;;;;;;25.75;23.25;;;;;11.47;100.00;100025.13;5031146;28;10591;-68
2023/10/24 08:24:18;;;;;;;;;23.75;23.00;;;;;11.51;100.00;100031.72;5029834;28;10654;-68
2023/10/24 08:26:45;;;;;;;;;32.75;28.75;;;;;11.54;100.00;100025.88;5030886;28;11333;-69
2023/10/24 08:29:31;;;;;;;;;31.25;29.50;;;;;11.52;100.00;100021.78;5015793;28;10749;-71
2023/10/24 08:31:58;;;;;;;;;32.00;27.00;;;;;11.51;100.00;100014.75;5030856;28;10731;-69
2023/10/24 08:34:28;;;;;;;;;32.00;30.00;;;;;11.50;100.00;100026.53;5030886;28;10813;-69
2023/10/24 08:36:54;;;;;;;;;27.25;24.00;;;;;11.50;100.00;100013.06;5029028;28;10739;-67
2023/10/24 08:39:23;;;;;;;;;36.25;33.50;;;;;11.48;100.00;100015.19;5029423;28;10524;-68
2023/10/24 08:41:53;;;;;;;;;31.50;29.75;;;;;11.44;100.00;100017.47;5030490;28;10741;-68
2023/10/24 08:44:21;;;;;;;;;29.00;28.50;;;;;11.50;100.00;100013.88;5030841;28;11426;-68
2023/10/24 08:46:48;;;;;;;;;36.00;33.25;;;;;11.48;100.00;100018.69;5030256;28;10784;-68
2023/10/24 08:49:17;;;;;;;;;35.75;34.00;;;;;11.51;100.00;100029.03;5029197;28;10748;-71
2023/10/24 08:51:45;;;;;;;;;33.00;29.00;;;;;11.55;100.00;100016.78;5030522;28;10662;-71
2023/10/24 08:54:11;;;;;;;;;39.50;29.75;;;;;11.48;100.00;100012.47;5030219;28;11395;-71
2023/10/24 08:56:39;;;;;;;;;35.25;34.25;;;;;11.48;100.00;100016.00;5030051;28;10686;-68
2023/10/24 08:59:08;;;;;;;;;28.00;28.00;;;;;11.50;100.00;100024.66;5030307;28;10733;-68
2023/10/24 09:01:40;;;;;;;;;29.25;29.00;;;;;11.50;100.00;100030.06;5030300;28;10515;-68
2023/10/24 09:04:07;;;;;;;;;30.25;29.50;;;;;11.56;100.00;100018.41;5030197;28;10718;-69
2023/10/24 09:06:36;;;;;;;;;23.75;21.75;;;;;11.69;100.00;100027.44;5028234;28;11548;-70
2023/10/24 09:09:03;;;;;;;;;31.75;30.25;;;;;11.71;100.00;100022.63;5029259;28;10632;-70
2023/10/24 09:11:51;;;;;;;;;24.25;21.75;;;;;11.78;100.00;100026.09;5030093;28;10800;-68
2023/10/24 09:14:17;;;;;;;;;34.00;30.50;;;;;11.80;100.00;100034.78;5030185;28;10600;-68
2023/10/24 09:16:44;;;;;;;;;29.75;25.75;;;;;11.81;100.00;100044.53;5029778;28;11378;-68
2023/10/24 09:19:14;;;;;;;;;30.75;27.75;;;;;11.88;100.00;100042.63;5029860;28;10668;-70
2023/10/24 09:21:44;;;;;;;;;27.75;26.25;;;;;11.89;100.00;100046.97;5029463;28;10501;-69
2023/10/24 09:24:31;;;;;;;;;29.50;27.00;;;;;11.85;100.00;100051.97;5030104;28;10645;-68
2023/10/24 09:27:01;;;;;;;;;26.75;26.25;;;;;11.84;100.00;100053.03;5028272;28;10447;-68
2023/10/24 09:29:29;;;;;;;;;28.50;25.75;;;;;11.79;100.00;100055.53;5045065;28;10589;-69
2023/10/24 09:31:58;;;;;;;;;26.00;25.00;;;;;11.77;100.00;100046.84;5029940;28;10647;-69
2023/10/24 09:34:27;;;;;;;;;35.75;30.75;;;;;11.76;100.00;100047.06;5030165;28;10464;-70
2023/10/24 09:37:06;;;;;;;;;23.50;23.50;;;;;11.81;100.00;100049.91;5030153;28;10685;-69
2023/10/24 09:39:59;;;;;;;;;26.00;22.25;;;;;11.87;100.00;100051.78;5012396;28;10423;-69
2023/10/24 09:42:28;;;;;;;;;30.00;27.25;;;;;11.87;100.00;100051.78;5045593;28;11092;-70
2023/10/24 09:45:01;;;;;;;;;30.25;29.25;;;;;11.77;100.00;100044.13;5030163;28;10489;-68
2023/10/24 09:47:28;;;;;;;;;24.75;22.00;;;;;11.83;100.00;100035.22;5029705;28;10395;-69
2023/10/24 09:49:56;;;;;;;;;22.25;21.00;;;;;11.78;100.00;100045.78;5030199;28;10558;-69
2023/10/24 09:52:25;;;;;;;;;21.75;20.75;;;;;11.84;100.00;100047.63;5028354;28;10718;-69
2023/10/24 09:54:52;;;;;;;;;26.00;24.75;;;;;11.74;100.00;100049.16;5028964;28;10438;-68
2023/10/24 09:57:22;;;;;;;;;24.00;23.00;;;;;11.75;100.00;100043.56;5027955;28;10615;-69
2023/10/24 09:59:55;;;;;;;;;23.25;21.00;;;;;11.66;100.00;100044.03;5029576;28;10485;-70
2023/10/24 10:02:25;;;;;;;;;18.75;18.00;;;;;11.66;100.00;100055.63;5028163;28;10517;-69
2023/10/24 10:04:53;;;;;;;;;22.25;20.75;;;;;11.69;100.00;100049.81;5029483;28;11212;-68
2023/10/24 10:07:25;;;;;;;;;19.50;19.25;;;;;11.65;100.00;100062.09;5029523;28;10321;-68
2023/10/24 10:09:53;;;;;;;;;25.50;24.75;;;;;11.63;100.00;100061.50;5029684;28;10328;-67
2023/10/24 10:12:20;;;;;;;;;20.50;20.50;;;;;11.66;100.00;100054.81;5029344;28;10468;-67
2023/10/24 10:14:55;;;;;;;;;20.25;18.25;;;;;11.79;100.00;100049.34;5029865;28;10469;-67
2023/10/24 10:17:48;;;;;;;;;26.75;22.50;;;;;11.77;100.00;100049.53;5029233;28;10331;-67
2023/10/24 10:20:23;;;;;;;;;21.00;18.75;;;;;11.72;100.00;100048.56;5021467;28;10462;-68
2023/10/24 10:23:15;;;;;;;;;16.25;15.50;;;;;11.72;100.00;100046.69;5029400;28;10175;-68
2023/10/24 10:26:14;;;;;;;;;17.75;16.75;;;;;11.77;100.00;100052.22;5029230;28;10081;-68
2023/10/24 10:29:07;;;;;;;;;17.50;17.50;;;;;11.76;100.00;100045.19;5003919;28;10174;-68
2023/10/24 10:31:47;;;;;;;;;22.25;20.75;;;;;11.73;100.00;100047.50;5045486;28;10381;-68
2023/10/24 10:34:36;;;;;;;;;21.25;19.50;;;;;11.76;100.00;100039.81;5048560;28;10189;-68
2023/10/24 10:37:04;;;;;;;;;27.75;22.00;;;;;11.81;100.00;100037.25;5032828;28;10225;-68
2023/10/24 10:39:31;;;;;;;;;20.25;19.00;;;;;11.83;100.00;100035.22;5033028;28;10254;-68
2023/10/24 10:41:58;;;;;;;;;20.50;18.75;;;;;11.80;100.00;100043.72;5031646;28;10339;-68
2023/10/24 10:44:41;;;;;;;;;19.00;17.00;;;;;11.87;100.00;100052.59;5032734;28;10229;-68
2023/10/24 10:47:14;;;;;;;;;21.75;19.75;;;;;11.85;100.00;100049.28;5031195;28;10311;-68
2023/10/24 10:49:44;;;;;;;;;24.00;20.25;;;;;11.86;100.00;100048.22;5031638;28;10250;-68
2023/10/24 10:52:48;;;;;;;;;28.25;25.75;;;;;11.81;100.00;100042.66;5032856;28;10074;-68
2023/10/24 10:55:38;;;;;;;;;22.50;20.25;;;;;11.83;100.00;100043.31;5032988;28;10461;-68
2023/10/24 10:58:34;;;;;;;;;30.00;26.25;;;;;11.75;100.00;100043.56;5032855;28;10271;-69
2023/10/24 11:01:20;;;;;;;;;31.75;26.25;;;;;11.75;100.00;100046.25;5048322;28;10557;-69
2023/10/24 11:03:48;;;;;;;;;26.75;23.75;;;;;11.76;100.00;100034.41;5032991;28;10495;-69
2023/10/24 11:06:17;;;;;;;;;30.75;29.00;;;;;11.81;100.00;100039.97;5032062;28;10532;-69
2023/10/24 11:08:49;;;;;;;;;26.00;25.00;;;;;11.87;100.00;100033.72;5032647;28;10418;-69
2023/10/24 11:11:20;;;;;;;;;37.25;35.00;;;;;11.85;100.00;100027.72;5032446;28;10415;-69